Time;durP1;ratioP1;P1;durP2;ratioP2;P2;SDS_P1;SDS_P2;PMS_P1;PMS_P2;Temp;Humidity;BMP_temperature;BMP_pressure;BME280_temperature;BME280_humidity;BME280_pressure;Samples;Min_cycle;Max_cycle;Signal;HPM_P1;HPM_P2
2021/09/26 00:01:21;;;;;;;91.07;45.45;;;17.20;99.90;;;;;;5100170;28;20036;-65
2021/09/26 00:03:47;;;;;;;75.07;46.40;;;17.20;99.90;;;;;;5074793;28;20040;-64
2021/09/26 00:06:13;;;;;;;79.90;44.83;;;17.20;99.90;;;;;;5099372;28;20043;-65
2021/09/26 00:08:39;;;;;;;76.60;43.95;;;17.20;99.90;;;;;;5095257;28;20462;-65
2021/09/26 00:11:08;;;;;;;75.80;43.75;;;17.10;99.90;;;;;;5090119;28;20033;-65
2021/09/26 00:13:35;;;;;;;74.10;42.95;;;17.10;99.90;;;;;;5107821;28;20074;-65
2021/09/26 00:16:02;;;;;;;72.97;43.85;;;17.10;99.90;;;;;;5102486;28;20171;-65
2021/09/26 00:18:28;;;;;;;75.05;41.25;;;17.20;99.90;;;;;;5102305;28;20173;-65
2021/09/26 00:20:54;;;;;;;67.05;40.28;;;17.10;99.90;;;;;;5099106;28;20146;-65
2021/09/26 00:23:19;;;;;;;68.60;40.80;;;17.10;99.90;;;;;;5105914;28;20048;-65
2021/09/26 00:25:45;;;;;;;73.07;39.03;;;17.10;99.90;;;;;;5104283;28;20048;-65
2021/09/26 00:28:11;;;;;;;73.90;42.67;;;17.20;99.90;;;;;;5081411;28;20104;-65
2021/09/26 00:30:37;;;;;;;65.70;39.35;;;17.10;99.90;;;;;;5105896;28;20062;-65
2021/09/26 00:33:03;;;;;;;69.97;40.75;;;17.10;99.90;;;;;;5099692;28;20134;-64
2021/09/26 00:35:29;;;;;;;66.07;37.65;;;17.20;99.90;;;;;;5105779;28;20097;-65
2021/09/26 00:37:54;;;;;;;66.00;37.67;;;17.10;99.90;;;;;;5108212;28;20048;-65
2021/09/26 00:40:20;;;;;;;64.35;39.63;;;17.10;99.90;;;;;;5085927;28;20052;-65
2021/09/26 00:42:46;;;;;;;63.33;39.50;;;17.10;99.90;;;;;;5095686;28;20044;-64
2021/09/26 00:45:13;;;;;;;59.38;37.33;;;17.10;99.90;;;;;;5102950;28;20056;-65
2021/09/26 00:47:39;;;;;;;65.03;38.83;;;17.10;99.90;;;;;;5104023;28;20044;-65
2021/09/26 00:50:06;;;;;;;63.75;37.17;;;17.10;99.90;;;;;;5091353;28;20301;-64
2021/09/26 00:52:32;;;;;;;63.60;37.65;;;17.10;99.90;;;;;;5087573;28;20066;-65
2021/09/26 00:54:58;;;;;;;60.53;38.60;;;17.10;99.90;;;;;;5087205;28;20046;-65
2021/09/26 00:57:24;;;;;;;59.88;35.78;;;17.10;99.90;;;;;;5087527;28;20053;-65
2021/09/26 00:59:49;;;;;;;59.78;37.08;;;17.10;99.90;;;;;;5087357;28;20048;-64
2021/09/26 01:02:15;;;;;;;62.05;37.50;;;17.10;99.90;;;;;;5076399;28;20094;-65
2021/09/26 01:04:42;;;;;;;61.45;38.95;;;17.00;99.90;;;;;;5087001;28;20044;-65
2021/09/26 01:07:24;;;;;;;63.72;37.78;;;17.10;99.90;;;;;;5087578;28;20055;-65
2021/09/26 01:10:09;;;;;;;57.60;35.92;;;17.00;99.90;;;;;;5087114;28;20443;-65
2021/09/26 01:13:04;;;;;;;64.50;36.97;;;17.10;99.90;;;;;;5086973;28;20057;-64
2021/09/26 01:15:42;;;;;;;54.53;35.92;;;17.00;99.90;;;;;;5087126;28;20049;-64
2021/09/26 01:18:43;;;;;;;66.57;37.63;;;17.00;99.90;;;;;;5086750;28;20492;-64
2021/09/26 01:21:21;;;;;;;62.53;37.67;;;17.00;99.90;;;;;;5087096;28;20067;-65
2021/09/26 01:24:16;;;;;;;57.20;35.67;;;17.10;99.90;;;;;;5081609;28;20051;-64
2021/09/26 01:27:14;;;;;;;58.88;36.72;;;17.00;99.90;;;;;;5088271;28;20329;-65
2021/09/26 01:30:01;;;;;;;61.15;37.95;;;17.00;99.90;;;;;;5075183;28;20067;-64
2021/09/26 01:32:30;;;;;;;53.67;34.95;;;17.00;99.90;;;;;;5092908;28;20048;-64
2021/09/26 01:34:59;;;;;;;59.10;36.35;;;17.00;99.90;;;;;;5079296;28;20222;-64
2021/09/26 01:37:37;;;;;;;54.80;37.13;;;17.00;99.90;;;;;;5068626;28;20048;-64
2021/09/26 01:40:18;;;;;;;60.47;37.47;;;17.00;99.90;;;;;;5086410;28;20044;-65
2021/09/26 01:43:00;;;;;;;56.50;36.35;;;17.00;99.90;;;;;;5086894;28;20068;-64
2021/09/26 01:45:28;;;;;;;60.17;37.95;;;17.00;99.90;;;;;;5087184;28;20075;-64
2021/09/26 01:48:00;;;;;;;55.00;35.83;;;17.00;99.90;;;;;;5086114;28;20036;-64
2021/09/26 01:50:27;;;;;;;58.90;36.08;;;17.00;99.90;;;;;;5064464;28;20040;-64
2021/09/26 01:52:54;;;;;;;62.60;37.53;;;17.00;99.90;;;;;;5086550;28;20087;-64
2021/09/26 01:55:24;;;;;;;58.83;38.20;;;16.90;99.90;;;;;;5086132;28;20036;-65
2021/09/26 01:57:52;;;;;;;63.28;37.92;;;17.00;99.90;;;;;;5086545;28;20044;-64
2021/09/26 02:00:17;;;;;;;55.78;35.55;;;17.00;99.90;;;;;;5086775;28;20052;-64
2021/09/26 02:02:44;;;;;;;59.80;38.03;;;17.00;99.90;;;;;;5085797;28;20040;-64
2021/09/26 02:05:11;;;;;;;52.92;34.92;;;17.00;99.90;;;;;;5086456;28;20607;-64
2021/09/26 02:07:41;;;;;;;60.30;37.00;;;17.00;99.90;;;;;;5087627;28;20040;-64
2021/09/26 02:10:08;;;;;;;59.92;35.95;;;17.00;99.90;;;;;;5067986;28;20329;-65
2021/09/26 02:12:34;;;;;;;52.85;35.03;;;16.90;99.90;;;;;;5086100;28;20492;-64
2021/09/26 02:15:03;;;;;;;59.67;37.60;;;16.90;99.90;;;;;;5086325;28;20036;-65
2021/09/26 02:17:30;;;;;;;54.90;35.25;;;16.90;99.90;;;;;;5085794;28;20096;-64
2021/09/26 02:20:00;;;;;;;61.15;36.40;;;16.90;99.90;;;;;;5085987;28;20043;-65
2021/09/26 02:22:27;;;;;;;57.95;35.05;;;16.90;99.90;;;;;;5093193;28;20066;-64
2021/09/26 02:24:53;;;;;;;;;;;16.80;99.90;;;;;;5100326;28;20082;-65
2021/09/26 02:27:19;;;;;;;60.15;35.42;;;16.80;99.90;;;;;;5085722;28;19924;-64
2021/09/26 02:29:44;;;;;;;56.33;35.92;;;16.80;99.90;;;;;;5085906;28;20036;-65
2021/09/26 02:32:10;;;;;;;54.38;34.80;;;16.80;99.90;;;;;;5085530;28;20571;-64
2021/09/26 02:34:36;;;;;;;57.10;35.10;;;16.80;99.90;;;;;;5063724;28;20049;-64
2021/09/26 02:37:02;;;;;;;57.22;36.75;;;16.80;99.90;;;;;;5065980;28;20095;-64
2021/09/26 02:39:27;;;;;;;68.28;37.45;;;16.80;99.90;;;;;;5071724;28;20040;-65
2021/09/26 02:42:13;;;;;;;71.05;38.85;;;16.80;99.90;;;;;;5069074;28;20064;-64
2021/09/26 02:44:46;;;;;;;49.03;32.10;;;16.80;99.90;;;;;;5068230;28;20479;-64
2021/09/26 02:47:16;;;;;;;68.10;38.42;;;16.80;99.90;;;;;;5075059;28;20040;-64
2021/09/26 02:49:43;;;;;;;63.72;37.05;;;16.80;99.90;;;;;;5078274;28;20052;-64
2021/09/26 02:52:11;;;;;;;61.05;38.97;;;16.80;99.90;;;;;;5081821;28;20051;-64
2021/09/26 02:54:39;;;;;;;62.70;37.65;;;16.80;99.90;;;;;;5066319;28;20037;-64
2021/09/26 02:57:06;;;;;;;63.92;40.05;;;16.70;99.90;;;;;;5067946;28;20056;-64
2021/09/26 02:59:33;;;;;;;70.72;38.67;;;16.80;99.90;;;;;;5065277;28;20048;-64
2021/09/26 03:01:58;;;;;;;64.72;39.65;;;16.80;99.90;;;;;;5065099;28;20045;-64
2021/09/26 03:04:24;;;;;;;71.32;42.35;;;16.70;99.90;;;;;;5064512;28;20044;-64
2021/09/26 03:06:50;;;;;;;72.68;42.47;;;16.80;99.90;;;;;;5065290;28;20055;-64
2021/09/26 03:09:16;;;;;;;63.47;40.72;;;16.70;99.90;;;;;;5064213;28;20051;-64
2021/09/26 03:11:42;;;;;;;68.85;41.75;;;16.70;99.90;;;;;;5072627;28;20084;-64
2021/09/26 03:14:08;;;;;;;64.95;39.63;;;16.80;99.90;;;;;;5067093;28;20037;-64
2021/09/26 03:16:34;;;;;;;65.05;41.85;;;16.70;99.90;;;;;;5063599;28;20386;-65
2021/09/26 03:19:00;;;;;;;68.38;42.22;;;16.70;99.90;;;;;;5064746;28;20510;-64
2021/09/26 03:21:28;;;;;;;74.07;42.25;;;16.70;99.90;;;;;;5066684;28;20064;-64
2021/09/26 03:23:58;;;;;;;75.03;42.10;;;16.70;99.90;;;;;;5064365;28;20105;-64
2021/09/26 03:26:23;;;;;;;72.72;42.17;;;16.70;99.90;;;;;;5064204;28;20115;-64
2021/09/26 03:28:50;;;;;;;75.97;45.40;;;16.70;99.90;;;;;;5064770;28;20047;-65
2021/09/26 03:31:15;;;;;;;76.55;44.38;;;16.70;99.90;;;;;;5078590;28;20057;-64
2021/09/26 03:33:41;;;;;;;71.03;42.05;;;16.70;99.90;;;;;;5067015;28;20084;-65
2021/09/26 03:36:08;;;;;;;73.72;42.00;;;16.60;99.90;;;;;;5087502;28;20044;-64
2021/09/26 03:38:33;;;;;;;67.68;39.88;;;16.60;99.90;;;;;;5092437;28;20135;-64
2021/09/26 03:40:59;;;;;;;75.45;41.75;;;16.60;99.90;;;;;;5083857;28;20041;-64
2021/09/26 03:43:25;;;;;;;66.75;41.55;;;16.50;99.90;;;;;;5084934;28;20044;-64
2021/09/26 03:45:51;;;;;;;78.13;42.30;;;16.50;99.90;;;;;;5083920;28;20036;-64
2021/09/26 03:48:19;;;;;;;59.60;37.80;;;16.40;99.90;;;;;;5087953;28;20101;-64
2021/09/26 03:50:44;;;;;;;70.13;41.85;;;16.40;99.90;;;;;;5087973;28;20040;-64
2021/09/26 03:53:10;;;;;;;92.30;45.75;;;16.30;99.90;;;;;;5066153;28;20041;-64
2021/09/26 03:55:37;;;;;;;92.85;46.30;;;16.30;99.90;;;;;;5091552;28;20052;-64
2021/09/26 03:58:03;;;;;;;75.78;44.45;;;16.20;99.90;;;;;;5090045;28;20476;-64
2021/09/26 04:00:28;;;;;;;83.18;47.70;;;16.20;99.90;;;;;;5086390;28;20072;-64
2021/09/26 04:02:54;;;;;;;96.85;47.25;;;16.20;99.90;;;;;;5091493;28;20086;-64
2021/09/26 04:05:19;;;;;;;90.18;46.42;;;16.10;99.90;;;;;;5084170;28;20047;-65
2021/09/26 04:07:46;;;;;;;83.22;44.58;;;16.00;99.90;;;;;;5084544;28;20068;-64
2021/09/26 04:10:12;;;;;;;98.25;47.05;;;16.00;99.90;;;;;;5083453;28;20044;-64
2021/09/26 04:12:38;;;;;;;82.57;43.65;;;16.00;99.90;;;;;;5083931;28;20083;-64
2021/09/26 04:15:05;;;;;;;81.88;43.22;;;15.90;99.90;;;;;;5089982;28;20092;-64
2021/09/26 04:17:30;;;;;;;93.57;46.25;;;15.90;99.90;;;;;;5084080;28;20036;-64
2021/09/26 04:19:56;;;;;;;95.63;44.53;;;15.90;99.90;;;;;;5066139;28;20040;-64
2021/09/26 04:22:22;;;;;;;87.70;44.83;;;15.90;99.90;;;;;;5087993;28;20044;-64
2021/09/26 04:24:47;;;;;;;84.28;45.17;;;15.80;99.90;;;;;;5093867;28;20041;-64
2021/09/26 04:27:13;;;;;;;83.32;43.95;;;15.80;99.90;;;;;;5083825;28;20040;-64
2021/09/26 04:29:39;;;;;;;93.03;45.75;;;15.80;99.90;;;;;;5066154;28;20076;-64
2021/09/26 04:32:05;;;;;;;92.28;45.13;;;15.70;99.90;;;;;;5083961;28;20048;-64
2021/09/26 04:34:30;;;;;;;87.82;43.97;;;15.70;99.90;;;;;;5083534;28;20075;-64
2021/09/26 04:36:56;;;;;;;77.78;43.53;;;15.70;99.90;;;;;;5091825;28;20493;-64
2021/09/26 04:39:22;;;;;;;89.20;45.25;;;15.60;99.90;;;;;;5085509;28;20078;-64
2021/09/26 04:41:48;;;;;;;86.25;44.38;;;15.60;99.90;;;;;;5083976;28;20068;-64
2021/09/26 04:44:14;;;;;;;87.32;44.85;;;15.60;99.90;;;;;;5083855;28;20045;-64
2021/09/26 04:46:40;;;;;;;92.93;45.00;;;15.60;99.90;;;;;;5083851;28;20070;-64
2021/09/26 04:49:06;;;;;;;87.57;42.85;;;15.60;99.90;;;;;;5084146;28;20519;-64
2021/09/26 04:51:32;;;;;;;86.25;44.13;;;15.50;99.90;;;;;;5085982;28;20044;-64
2021/09/26 04:53:58;;;;;;;87.10;43.88;;;15.40;99.90;;;;;;5084295;28;20086;-64
2021/09/26 04:56:23;;;;;;;94.88;45.40;;;15.40;99.90;;;;;;5088039;28;20047;-65
2021/09/26 04:58:49;;;;;;;86.82;44.38;;;15.40;99.90;;;;;;5094368;28;20048;-64
2021/09/26 05:01:17;;;;;;;87.18;42.97;;;15.40;99.90;;;;;;5087207;28;20060;-65
2021/09/26 05:03:43;;;;;;;94.53;44.90;;;15.40;99.90;;;;;;5069971;28;20036;-64
2021/09/26 05:06:08;;;;;;;81.38;43.38;;;15.40;99.90;;;;;;5087752;28;20044;-64
2021/09/26 05:08:34;;;;;;;102.00;46.60;;;15.30;99.90;;;;;;5087412;28;20044;-64
2021/09/26 05:11:00;;;;;;;102.28;47.08;;;15.30;99.90;;;;;;5086610;28;20053;-64
2021/09/26 05:13:26;;;;;;;93.20;46.97;;;15.30;99.90;;;;;;5069290;28;20047;-64
2021/09/26 05:15:51;;;;;;;103.35;49.25;;;15.30;99.90;;;;;;5072457;28;20047;-64
2021/09/26 05:18:17;;;;;;;99.10;46.67;;;15.20;99.90;;;;;;5077616;28;20053;-64
2021/09/26 05:20:44;;;;;;;104.00;47.80;;;15.20;99.90;;;;;;5070744;28;20108;-64
2021/09/26 05:23:10;;;;;;;107.47;47.55;;;15.20;99.90;;;;;;5087106;28;20044;-64
2021/09/26 05:25:35;;;;;;;101.40;47.45;;;15.20;99.90;;;;;;5086060;28;20045;-64
2021/09/26 05:28:02;;;;;;;114.97;48.83;;;15.20;99.90;;;;;;5086639;28;20045;-64
2021/09/26 05:30:30;;;;;;;107.63;48.70;;;15.10;99.90;;;;;;5086746;28;20620;-64
2021/09/26 05:32:56;;;;;;;114.22;49.75;;;15.10;99.90;;;;;;5080688;28;20067;-64
2021/09/26 05:35:23;;;;;;;106.03;48.72;;;15.10;99.90;;;;;;5087121;28;20052;-64
2021/09/26 05:37:48;;;;;;;96.78;48.60;;;15.10;99.90;;;;;;5086821;28;20052;-64
2021/09/26 05:40:14;;;;;;;105.55;48.33;;;15.10;99.90;;;;;;5085959;28;20416;-65
2021/09/26 05:42:40;;;;;;;107.35;50.92;;;15.10;99.90;;;;;;5070312;28;20408;-64
2021/09/26 05:45:06;;;;;;;104.03;49.70;;;15.00;99.90;;;;;;5086543;28;20604;-64
2021/09/26 05:47:32;;;;;;;104.30;48.30;;;15.00;99.90;;;;;;5086059;28;20048;-64
2021/09/26 05:49:58;;;;;;;89.60;48.47;;;15.00;99.90;;;;;;5086457;28;20078;-64
2021/09/26 05:52:24;;;;;;;99.82;50.13;;;15.10;99.90;;;;;;5068243;28;20048;-64
2021/09/26 05:54:49;;;;;;;103.93;51.60;;;15.10;99.90;;;;;;5090801;28;20044;-64
2021/09/26 05:57:15;;;;;;;100.72;49.50;;;15.00;99.90;;;;;;5076269;28;20064;-64
2021/09/26 05:59:41;;;;;;;107.22;53.05;;;15.00;99.90;;;;;;5086831;28;20041;-64
2021/09/26 06:02:10;;;;;;;102.10;52.28;;;15.00;99.90;;;;;;5091008;28;20042;-64
2021/09/26 06:04:36;;;;;;;99.75;50.28;;;15.00;99.90;;;;;;5095154;28;20080;-64
2021/09/26 06:07:03;;;;;;;90.97;47.55;;;15.00;99.90;;;;;;5085983;28;20044;-64
2021/09/26 06:09:29;;;;;;;104.47;51.72;;;15.00;99.90;;;;;;5084547;28;20040;-64
2021/09/26 06:11:55;;;;;;;100.45;53.03;;;15.00;99.90;;;;;;5068324;28;20170;-64
2021/09/26 06:14:20;;;;;;;95.88;50.28;;;15.00;99.90;;;;;;5086324;28;20041;-64
2021/09/26 06:16:46;;;;;;;94.55;49.90;;;15.10;99.90;;;;;;5094438;28;20032;-64
2021/09/26 06:19:12;;;;;;;93.40;47.05;;;15.10;99.90;;;;;;5085824;28;20055;-64
2021/09/26 06:21:42;;;;;;;90.00;49.72;;;15.10;99.90;;;;;;5085872;28;20036;-63
2021/09/26 06:24:09;;;;;;;91.53;48.50;;;15.10;99.90;;;;;;5100183;28;20063;-64
2021/09/26 06:26:34;;;;;;;99.05;49.10;;;15.10;99.90;;;;;;5085621;28;20076;-64
2021/09/26 06:29:00;;;;;;;108.35;54.47;;;15.00;99.90;;;;;;5099691;28;20048;-64
2021/09/26 06:31:26;;;;;;;91.28;48.80;;;15.10;99.90;;;;;;5091934;28;20039;-64
2021/09/26 06:33:51;;;;;;;78.40;47.20;;;15.10;99.90;;;;;;5072943;28;20104;-64
2021/09/26 06:36:17;;;;;;;72.70;44.33;;;15.20;99.90;;;;;;5096118;28;20408;-64
2021/09/26 06:38:43;;;;;;;70.63;45.60;;;15.20;99.90;;;;;;5085682;28;20078;-64
2021/09/26 06:41:11;;;;;;;78.05;46.13;;;15.30;99.90;;;;;;5084615;28;20032;-64
2021/09/26 06:43:37;;;;;;;64.10;41.30;;;15.30;99.90;;;;;;5067718;28;20106;-64
2021/09/26 06:46:03;;;;;;;72.88;44.92;;;15.40;99.90;;;;;;5085570;28;20420;-64
2021/09/26 06:48:28;;;;;;;70.40;41.13;;;15.40;99.90;;;;;;5085295;28;20144;-64
2021/09/26 06:50:54;;;;;;;62.85;40.90;;;15.40;99.90;;;;;;5086119;28;20119;-64
2021/09/26 06:53:20;;;;;;;56.38;40.15;;;15.40;99.90;;;;;;5092054;28;20086;-64
2021/09/26 06:55:46;;;;;;;58.65;38.22;;;15.50;99.90;;;;;;5093924;28;20066;-64
2021/09/26 06:58:11;;;;;;;59.45;38.08;;;15.50;99.90;;;;;;5090313;28;20037;-64
2021/09/26 07:00:37;;;;;;;58.40;38.38;;;15.50;99.90;;;;;;5085314;28;20102;-64
2021/09/26 07:03:02;;;;;;;52.28;37.53;;;15.60;99.90;;;;;;5067170;28;20057;-64
2021/09/26 07:05:28;;;;;;;53.03;36.15;;;15.60;99.90;;;;;;5067215;28;20165;-64
2021/09/26 07:07:54;;;;;;;52.35;35.88;;;15.60;99.90;;;;;;5085174;28;20055;-64
2021/09/26 07:10:20;;;;;;;43.88;32.53;;;15.70;99.90;;;;;;5071097;28;20082;-65
2021/09/26 07:12:46;;;;;;;43.38;33.38;;;15.80;99.90;;;;;;5085172;28;20502;-64
2021/09/26 07:15:12;;;;;;;42.80;32.42;;;15.80;99.90;;;;;;5085223;28;20029;-64
2021/09/26 07:17:38;;;;;;;38.78;29.27;;;15.90;99.90;;;;;;5084723;28;20059;-64
2021/09/26 07:20:05;;;;;;;39.33;29.60;;;16.00;99.90;;;;;;5084560;28;20423;-64
2021/09/26 07:22:31;;;;;;;41.95;28.08;;;16.10;99.90;;;;;;5079986;28;20048;-64
2021/09/26 07:24:57;;;;;;;40.10;28.65;;;16.10;99.90;;;;;;5084324;28;20068;-64
2021/09/26 07:27:24;;;;;;;38.63;29.08;;;16.20;99.90;;;;;;5084525;28;20040;-63
2021/09/26 07:29:51;;;;;;;36.92;26.70;;;16.30;99.90;;;;;;5071286;28;20059;-64
2021/09/26 07:32:16;;;;;;;36.75;26.90;;;16.40;99.90;;;;;;5084802;28;20131;-64
2021/09/26 07:34:43;;;;;;;32.35;25.52;;;16.50;99.90;;;;;;5088634;28;20090;-64
2021/09/26 07:37:09;;;;;;;33.78;25.15;;;16.50;99.90;;;;;;5084514;28;20048;-64
2021/09/26 07:39:35;;;;;;;31.95;23.52;;;16.60;99.90;;;;;;5086649;28;20040;-64
2021/09/26 07:42:02;;;;;;;36.10;23.13;;;16.70;99.90;;;;;;5092268;28;20041;-64
2021/09/26 07:44:28;;;;;;;27.23;23.25;;;16.70;99.90;;;;;;5068416;28;20079;-64
2021/09/26 07:46:53;;;;;;;29.05;22.77;;;16.80;99.90;;;;;;5066418;28;20048;-64
2021/09/26 07:49:19;;;;;;;28.40;21.98;;;16.90;99.90;;;;;;5084221;28;20195;-65
2021/09/26 07:51:45;;;;;;;26.33;21.67;;;17.00;99.90;;;;;;5084664;28;20048;-65
2021/09/26 07:54:15;;;;;;;26.63;21.50;;;17.10;99.90;;;;;;5086594;28;20048;-64
2021/09/26 07:56:41;;;;;;;25.58;20.13;;;17.20;99.90;;;;;;5089251;28;20040;-64
2021/09/26 07:59:07;;;;;;;25.30;19.23;;;17.30;99.90;;;;;;5089847;28;20040;-64
2021/09/26 08:01:33;;;;;;;27.02;20.25;;;17.30;99.90;;;;;;5094708;28;20073;-65
2021/09/26 08:03:59;;;;;;;22.27;18.17;;;17.50;99.90;;;;;;5093061;28;20503;-65
2021/09/26 08:06:25;;;;;;;23.63;19.83;;;17.60;99.90;;;;;;5095958;28;20044;-64
2021/09/26 08:08:51;;;;;;;22.65;18.55;;;17.70;99.90;;;;;;5092676;28;20546;-64
2021/09/26 08:11:17;;;;;;;23.92;18.23;;;17.90;99.90;;;;;;5090883;28;20040;-65
2021/09/26 08:13:43;;;;;;;24.85;17.80;;;18.00;99.90;;;;;;5092938;28;20044;-65
2021/09/26 08:16:08;;;;;;;19.45;17.35;;;18.10;99.90;;;;;;5071290;28;20182;-65
2021/09/26 08:18:34;;;;;;;20.23;17.25;;;18.10;99.90;;;;;;5096557;28;20043;-64
2021/09/26 08:21:00;;;;;;;24.65;18.02;;;18.20;99.90;;;;;;5088879;28;20488;-65
2021/09/26 08:23:25;;;;;;;21.10;17.30;;;18.30;99.90;;;;;;5084288;28;20089;-65
2021/09/26 08:25:51;;;;;;;19.92;17.48;;;18.40;99.90;;;;;;5090441;28;20496;-64
2021/09/26 08:28:18;;;;;;;19.13;16.65;;;18.60;99.90;;;;;;5093793;28;20071;-65
2021/09/26 08:30:44;;;;;;;19.90;16.55;;;18.80;99.90;;;;;;5091656;28;20526;-73
2021/09/26 08:33:10;;;;;;;22.90;16.80;;;18.80;99.90;;;;;;5079414;28;20072;-61
2021/09/26 08:35:36;;;;;;;17.77;15.95;;;18.80;99.90;;;;;;5098308;28;20052;-66
2021/09/26 08:38:03;;;;;;;23.02;15.45;;;18.90;99.90;;;;;;5103713;28;20103;-64
2021/09/26 08:40:29;;;;;;;19.52;15.55;;;18.90;99.90;;;;;;5094021;28;20048;-63
2021/09/26 08:42:55;;;;;;;19.73;17.63;;;19.10;99.90;;;;;;5100907;28;20040;-68
2021/09/26 08:45:21;;;;;;;17.13;15.25;;;19.30;99.90;;;;;;5104743;28;20040;-68
2021/09/26 08:47:48;;;;;;;19.52;15.63;;;19.40;99.90;;;;;;5108009;28;20048;-64
2021/09/26 08:50:17;;;;;;;18.98;14.57;;;19.50;99.90;;;;;;5087295;28;20036;-64
2021/09/26 08:52:45;;;;;;;17.05;15.23;;;19.60;99.90;;;;;;5099509;28;20043;-62
2021/09/26 08:55:11;;;;;;;;;;;19.80;99.90;;;;;;5100042;28;20078;-65
2021/09/26 08:57:38;;;;;;;17.02;13.73;;;19.80;99.90;;;;;;5095496;28;19927;-68
2021/09/26 09:00:09;;;;;;;18.80;14.63;;;19.80;99.90;;;;;;5084020;28;20070;-67
2021/09/26 09:02:35;;;;;;;15.57;13.25;;;20.00;99.90;;;;;;5091100;28;20041;-66
2021/09/26 09:05:01;;;;;;;17.83;14.57;;;20.10;99.90;;;;;;5098505;28;20063;-64
2021/09/26 09:07:26;;;;;;;16.58;14.43;;;20.10;99.90;;;;;;5100075;28;20032;-65
2021/09/26 09:09:58;;;;;;;17.13;13.70;;;20.00;99.90;;;;;;5100017;28;20355;-65
2021/09/26 09:12:31;;;;;;;16.60;13.57;;;20.20;99.90;;;;;;5102395;28;20045;-65
2021/09/26 09:14:59;;;;;;;14.57;12.73;;;20.10;99.90;;;;;;5081071;28;20126;-65
2021/09/26 09:17:38;;;;;;;14.38;12.88;;;20.00;99.90;;;;;;5093501;28;20056;-65
2021/09/26 09:20:23;;;;;;;15.05;13.40;;;19.90;99.90;;;;;;5100096;28;20065;-65
2021/09/26 09:22:56;;;;;;;18.15;12.70;;;19.90;99.90;;;;;;5093299;28;20075;-65
2021/09/26 09:25:48;;;;;;;15.30;13.50;;;19.90;99.90;;;;;;5084201;28;20642;-65
2021/09/26 09:28:22;;;;;;;18.45;13.43;;;19.80;99.90;;;;;;5095989;28;20127;-66
2021/09/26 09:31:09;;;;;;;18.02;13.75;;;19.70;99.90;;;;;;5083050;28;20075;-67
2021/09/26 09:33:40;;;;;;;18.38;13.77;;;19.80;99.90;;;;;;5098192;28;20043;-67
2021/09/26 09:36:27;;;;;;;16.13;12.27;;;19.90;99.90;;;;;;5105240;28;20042;-67
2021/09/26 09:38:59;;;;;;;17.25;12.70;;;19.90;99.90;;;;;;5078351;28;20107;-66
2021/09/26 09:41:38;;;;;;;17.10;12.80;;;20.10;99.90;;;;;;5104659;28;20055;-66
2021/09/26 09:44:05;;;;;;;19.95;12.63;;;20.10;99.90;;;;;;5093152;28;20496;-66
2021/09/26 09:46:35;;;;;;;17.10;12.50;;;20.00;99.90;;;;;;5104020;28;20040;-67
2021/09/26 09:49:12;;;;;;;14.55;11.93;;;19.90;99.90;;;;;;5100370;28;20074;-66
2021/09/26 09:51:46;;;;;;;16.65;12.57;;;19.80;99.90;;;;;;5093323;28;20036;-67
2021/09/26 09:54:12;;;;;;;15.05;11.25;;;19.80;99.90;;;;;;5104685;28;20047;-67
2021/09/26 09:56:43;;;;;;;17.75;10.98;;;19.80;99.90;;;;;;5077355;28;20512;-67
2021/09/26 09:59:11;;;;;;;18.48;10.75;;;19.80;99.90;;;;;;5096481;28;20044;-67
2021/09/26 10:01:39;;;;;;;15.32;12.27;;;19.80;99.90;;;;;;5098663;28;20047;-67
2021/09/26 10:04:06;;;;;;;17.95;11.02;;;19.80;99.90;;;;;;5076979;28;20145;-67
2021/09/26 10:06:53;;;;;;;;;;;19.80;99.90;;;;;;5083391;28;20044;-67
2021/09/26 10:09:21;;;;;;;16.98;10.68;;;20.00;99.90;;;;;;5097610;28;19927;-66
2021/09/26 10:11:58;;;;;;;16.15;11.32;;;20.20;99.90;;;;;;5087418;28;20047;-67
2021/09/26 10:14:26;;;;;;;13.85;9.80;;;20.20;99.90;;;;;;5084013;28;20502;-67
2021/09/26 10:16:53;;;;;;;12.57;10.63;;;20.40;99.90;;;;;;5077328;28;20044;-67
2021/09/26 10:19:21;;;;;;;17.13;13.15;;;20.50;99.90;;;;;;5103714;28;20047;-67
2021/09/26 10:21:49;;;;;;;15.68;13.25;;;20.50;99.90;;;;;;5097433;28;20052;-67
2021/09/26 10:24:17;;;;;;;13.45;11.98;;;20.60;99.90;;;;;;5094474;28;20044;-67
2021/09/26 10:26:44;;;;;;;13.85;11.95;;;20.50;99.90;;;;;;5101595;28;20040;-67
2021/09/26 10:29:11;;;;;;;13.88;11.48;;;20.70;99.90;;;;;;5102066;28;20040;-67
2021/09/26 10:31:39;;;;;;;19.98;11.65;;;20.70;99.90;;;;;;5101114;28;20045;-67
2021/09/26 10:34:05;;;;;;;14.73;11.35;;;20.80;99.90;;;;;;5077137;28;20117;-66
2021/09/26 10:36:36;;;;;;;12.52;10.15;;;20.80;99.90;;;;;;5080426;28;20532;-66
2021/09/26 10:39:06;;;;;;;13.80;10.38;;;21.10;99.90;;;;;;5098721;28;20065;-66
2021/09/26 10:41:32;;;;;;;12.48;9.20;;;21.30;99.90;;;;;;5079335;28;20056;-60
2021/09/26 10:44:24;;;;;;;10.50;8.50;;;21.60;99.90;;;;;;5099408;28;20036;-59
2021/09/26 10:47:16;;;;;;;11.27;8.70;;;21.70;99.90;;;;;;5095743;28;20066;-60
2021/09/26 10:49:53;;;;;;;13.13;8.55;;;21.60;99.90;;;;;;5098178;28;20067;-59
2021/09/26 10:52:44;;;;;;;13.57;8.07;;;21.70;99.90;;;;;;5073057;28;20051;-60
2021/09/26 10:55:22;;;;;;;10.13;8.38;;;21.90;99.90;;;;;;5094010;28;20043;-59
2021/09/26 10:58:00;;;;;;;11.93;7.60;;;22.20;99.90;;;;;;5098343;28;20052;-59
2021/09/26 11:00:33;;;;;;;15.07;8.05;;;22.60;99.90;;;;;;5100105;28;20040;-62
2021/09/26 11:03:05;;;;;;;10.95;8.13;;;22.60;99.90;;;;;;5100338;28;20054;-59
2021/09/26 11:05:55;;;;;;;9.88;7.70;;;22.90;99.90;;;;;;5094006;28;20066;-61
2021/09/26 11:08:24;;;;;;;7.50;6.25;;;23.20;99.90;;;;;;5089754;28;20087;-59
2021/09/26 11:10:55;;;;;;;10.95;7.40;;;23.50;99.90;;;;;;5097553;28;20064;-60
2021/09/26 11:13:28;;;;;;;8.90;6.97;;;23.30;99.90;;;;;;5103406;28;20055;-60
2021/09/26 11:16:17;;;;;;;8.85;6.85;;;23.20;99.90;;;;;;5097583;28;20036;-66
2021/09/26 11:18:58;;;;;;;7.97;6.88;;;23.10;99.90;;;;;;5100866;28;20036;-69
2021/09/26 11:21:40;;;;;;;11.30;7.03;;;23.00;99.90;;;;;;5103493;28;20070;-72
2021/09/26 11:24:10;;;;;;;6.88;6.18;;;22.70;99.90;;;;;;5081812;28;20043;-68
2021/09/26 11:26:58;;;;;;;9.20;6.80;;;22.50;99.90;;;;;;5080429;28;20047;-63
2021/09/26 11:29:39;;;;;;;12.70;7.80;;;22.40;99.90;;;;;;5096283;28;20661;-69
2021/09/26 11:32:10;;;;;;;10.48;7.35;;;22.10;99.90;;;;;;5081171;28;20438;-66
2021/09/26 11:34:44;;;;;;;9.95;7.63;;;22.10;99.90;;;;;;5089895;28;20049;-65
2021/09/26 11:37:12;;;;;;;8.95;8.02;;;22.10;99.90;;;;;;5097974;28;20044;-64
2021/09/26 11:39:40;;;;;;;9.40;7.65;;;21.90;99.90;;;;;;5100733;28;20066;-69
2021/09/26 11:42:29;;;;;;;8.82;7.85;;;21.70;99.90;;;;;;5067333;28;20048;-80
2021/09/26 11:44:56;;;;;;;15.68;8.57;;;21.60;99.90;;;;;;5094274;28;20087;-75
2021/09/26 11:47:23;;;;;;;14.10;8.73;;;21.40;99.90;;;;;;5101417;28;20123;-72
2021/09/26 11:49:49;;;;;;;11.52;9.32;;;21.30;99.90;;;;;;5094492;28;20041;-68
2021/09/26 11:52:15;;;;;;;13.90;8.95;;;21.40;99.90;;;;;;5103392;28;20152;-72
2021/09/26 11:54:43;;;;;;;14.23;10.30;;;21.30;99.90;;;;;;5080519;28;20047;-68
2021/09/26 11:57:12;;;;;;;;;;;21.00;99.90;;;;;;5102884;28;20099;-64
2021/09/26 11:59:39;;;;;;;11.48;8.82;;;21.10;99.90;;;;;;5100472;28;19920;-64
2021/09/26 12:02:15;;;;;;;;;;;21.00;99.90;;;;;;5100223;28;20040;-63
2021/09/26 12:04:41;;;;;;;12.48;8.80;;;21.10;99.90;;;;;;5094393;28;20385;-66
2021/09/26 12:07:08;;;;;;;12.13;9.27;;;21.20;99.90;;;;;;5078162;28;20048;-71
2021/09/26 12:09:43;;;;;;;15.40;9.48;;;21.30;99.90;;;;;;5096620;28;20040;-68
2021/09/26 12:12:11;;;;;;;11.98;9.57;;;21.40;99.90;;;;;;5101537;28;20122;-69
2021/09/26 12:14:40;;;;;;;12.52;9.05;;;21.40;99.90;;;;;;5092793;28;20078;-66
2021/09/26 12:17:09;;;;;;;15.00;10.18;;;21.60;99.90;;;;;;5094261;28;20040;-69
2021/09/26 12:19:35;;;;;;;14.30;9.40;;;21.50;99.90;;;;;;5075447;28;20108;-68
2021/09/26 12:22:26;;;;;;;10.97;8.27;;;21.60;99.90;;;;;;5100106;28;20123;-70
2021/09/26 12:25:11;;;;;;;10.50;9.13;;;21.50;99.90;;;;;;5101311;28;20051;-66
2021/09/26 12:27:53;;;;;;;15.45;9.18;;;21.50;99.90;;;;;;5092657;28;20476;-66
2021/09/26 12:30:27;;;;;;;15.48;9.95;;;21.50;99.90;;;;;;5099384;28;20052;-65
2021/09/26 12:33:03;;;;;;;13.02;9.80;;;21.30;99.90;;;;;;5097109;28;20066;-65
2021/09/26 12:35:44;;;;;;;13.35;9.77;;;21.30;99.90;;;;;;5082267;28;20342;-66
2021/09/26 12:38:22;;;;;;;17.90;11.80;;;21.30;99.90;;;;;;5094020;28;20044;-67
2021/09/26 12:40:59;;;;;;;12.50;9.48;;;21.10;99.90;;;;;;5098727;28;20029;-66